sensor_id;sensor_type;location;lat;lon;timestamp;P1;durP1;ratioP1;P2;durP2;ratioP2
6105;SDS011;3083;51.508;7.966;2022-10-12T00:00:23;16.43;;;8.50;;
6105;SDS011;3083;51.508;7.966;2022-10-12T00:02:50;21.77;;;8.87;;
6105;SDS011;3083;51.508;7.966;2022-10-12T00:05:17;20.50;;;7.40;;
6105;SDS011;3083;51.508;7.966;2022-10-12T00:07:44;17.30;;;8.50;;
6105;SDS011;3083;51.508;7.966;2022-10-12T00:10:11;19.10;;;8.47;;
6105;SDS011;3083;51.508;7.966;2022-10-12T00:12:37;19.87;;;8.43;;
6105;SDS011;3083;51.508;7.966;2022-10-12T00:15:06;17.30;;;7.97;;
6105;SDS011;3083;51.508;7.966;2022-10-12T00:17:33;11.50;;;6.87;;
6105;SDS011;3083;51.508;7.966;2022-10-12T00:20:00;11.37;;;7.00;;
6105;SDS011;3083;51.508;7.966;2022-10-12T00:22:28;16.57;;;7.90;;
6105;SDS011;3083;51.508;7.966;2022-10-12T00:24:54;14.03;;;7.57;;
6105;SDS011;3083;51.508;7.966;2022-10-12T00:27:21;15.17;;;8.20;;
6105;SDS011;3083;51.508;7.966;2022-10-12T00:29:48;15.37;;;8.50;;
6105;SDS011;3083;51.508;7.966;2022-10-12T00:32:17;17.20;;;8.00;;
6105;SDS011;3083;51.508;7.966;2022-10-12T00:34:44;15.17;;;8.00;;
6105;SDS011;3083;51.508;7.966;2022-10-12T00:37:11;17.23;;;8.57;;
6105;SDS011;3083;51.508;7.966;2022-10-12T00:39:38;18.03;;;8.20;;
6105;SDS011;3083;51.508;7.966;2022-10-12T00:42:04;15.57;;;7.57;;
6105;SDS011;3083;51.508;7.966;2022-10-12T00:44:33;16.53;;;8.10;;
6105;SDS011;3083;51.508;7.966;2022-10-12T00:47:02;14.87;;;8.70;;
6105;SDS011;3083;51.508;7.966;2022-10-12T00:49:36;14.60;;;8.60;;
6105;SDS011;3083;51.508;7.966;2022-10-12T00:52:04;20.30;;;9.00;;
6105;SDS011;3083;51.508;7.966;2022-10-12T00:54:35;20.43;;;8.40;;
6105;SDS011;3083;51.508;7.966;2022-10-12T00:57:08;18.77;;;8.20;;
6105;SDS011;3083;51.508;7.966;2022-10-12T00:59:37;18.63;;;8.63;;
6105;SDS011;3083;51.508;7.966;2022-10-12T01:02:09;18.20;;;8.60;;
6105;SDS011;3083;51.508;7.966;2022-10-12T01:04:38;14.33;;;7.97;;
6105;SDS011;3083;51.508;7.966;2022-10-12T01:07:05;18.57;;;8.20;;
6105;SDS011;3083;51.508;7.966;2022-10-12T01:09:32;18.57;;;8.07;;
6105;SDS011;3083;51.508;7.966;2022-10-12T01:11:59;18.43;;;8.97;;
6105;SDS011;3083;51.508;7.966;2022-10-12T01:14:29;18.80;;;8.50;;
6105;SDS011;3083;51.508;7.966;2022-10-12T01:16:57;20.43;;;9.10;;
6105;SDS011;3083;51.508;7.966;2022-10-12T01:19:43;17.23;;;9.13;;
6105;SDS011;3083;51.508;7.966;2022-10-12T01:22:24;19.40;;;8.80;;
6105;SDS011;3083;51.508;7.966;2022-10-12T01:24:52;22.53;;;9.17;;
6105;SDS011;3083;51.508;7.966;2022-10-12T01:27:28;28.83;;;9.07;;
6105;SDS011;3083;51.508;7.966;2022-10-12T01:30:06;17.50;;;8.37;;
6105;SDS011;3083;51.508;7.966;2022-10-12T01:32:37;19.07;;;7.87;;
6105;SDS011;3083;51.508;7.966;2022-10-12T01:35:21;22.53;;;8.00;;
6105;SDS011;3083;51.508;7.966;2022-10-12T01:37:54;19.00;;;8.50;;
6105;SDS011;3083;51.508;7.966;2022-10-12T01:40:30;15.93;;;8.10;;
6105;SDS011;3083;51.508;7.966;2022-10-12T01:43:02;18.57;;;8.20;;
6105;SDS011;3083;51.508;7.966;2022-10-12T01:45:30;19.90;;;8.33;;
6105;SDS011;3083;51.508;7.966;2022-10-12T01:47:57;19.83;;;8.23;;
6105;SDS011;3083;51.508;7.966;2022-10-12T01:50:26;20.00;;;8.00;;
6105;SDS011;3083;51.508;7.966;2022-10-12T01:53:00;18.77;;;9.00;;
6105;SDS011;3083;51.508;7.966;2022-10-12T01:55:37;17.63;;;8.47;;
6105;SDS011;3083;51.508;7.966;2022-10-12T01:58:32;19.67;;;8.60;;
6105;SDS011;3083;51.508;7.966;2022-10-12T02:01:15;18.07;;;8.93;;
6105;SDS011;3083;51.508;7.966;2022-10-12T02:03:47;18.13;;;8.50;;
6105;SDS011;3083;51.508;7.966;2022-10-12T02:06:21;15.20;;;7.93;;
6105;SDS011;3083;51.508;7.966;2022-10-12T02:08:54;17.37;;;8.37;;
6105;SDS011;3083;51.508;7.966;2022-10-12T02:11:27;19.83;;;8.47;;
6105;SDS011;3083;51.508;7.966;2022-10-12T02:13:55;17.67;;;7.83;;
6105;SDS011;3083;51.508;7.966;2022-10-12T02:16:30;27.77;;;9.73;;
6105;SDS011;3083;51.508;7.966;2022-10-12T02:19:01;15.33;;;8.13;;
6105;SDS011;3083;51.508;7.966;2022-10-12T02:21:30;16.13;;;8.30;;
6105;SDS011;3083;51.508;7.966;2022-10-12T02:24:00;17.80;;;8.83;;
6105;SDS011;3083;51.508;7.966;2022-10-12T02:26:29;18.40;;;8.13;;
6105;SDS011;3083;51.508;7.966;2022-10-12T02:28:59;20.13;;;8.00;;
6105;SDS011;3083;51.508;7.966;2022-10-12T02:31:31;19.53;;;9.27;;
6105;SDS011;3083;51.508;7.966;2022-10-12T02:34:03;22.33;;;8.50;;
6105;SDS011;3083;51.508;7.966;2022-10-12T02:36:36;16.73;;;8.27;;
6105;SDS011;3083;51.508;7.966;2022-10-12T02:39:09;16.67;;;7.97;;
6105;SDS011;3083;51.508;7.966;2022-10-12T02:41:39;19.63;;;8.40;;
6105;SDS011;3083;51.508;7.966;2022-10-12T02:44:12;14.67;;;7.83;;
6105;SDS011;3083;51.508;7.966;2022-10-12T02:46:46;17.43;;;7.63;;
6105;SDS011;3083;51.508;7.966;2022-10-12T02:49:14;18.90;;;7.40;;
6105;SDS011;3083;51.508;7.966;2022-10-12T02:51:43;13.60;;;7.47;;
6105;SDS011;3083;51.508;7.966;2022-10-12T02:54:11;17.67;;;7.73;;
6105;SDS011;3083;51.508;7.966;2022-10-12T02:56:41;16.53;;;7.67;;
6105;SDS011;3083;51.508;7.966;2022-10-12T02:59:09;15.83;;;8.27;;
6105;SDS011;3083;51.508;7.966;2022-10-12T03:01:36;19.00;;;8.30;;
6105;SDS011;3083;51.508;7.966;2022-10-12T03:04:05;14.57;;;7.80;;
6105;SDS011;3083;51.508;7.966;2022-10-12T03:06:32;17.37;;;8.43;;
6105;SDS011;3083;51.508;7.966;2022-10-12T03:08:59;18.37;;;8.73;;
6105;SDS011;3083;51.508;7.966;2022-10-12T03:11:26;13.37;;;7.20;;
6105;SDS011;3083;51.508;7.966;2022-10-12T03:13:53;17.33;;;8.30;;
6105;SDS011;3083;51.508;7.966;2022-10-12T03:16:20;19.17;;;8.93;;
6105;SDS011;3083;51.508;7.966;2022-10-12T03:18:48;16.47;;;8.50;;
6105;SDS011;3083;51.508;7.966;2022-10-12T03:21:17;19.33;;;8.73;;
6105;SDS011;3083;51.508;7.966;2022-10-12T03:23:43;22.23;;;8.93;;
6105;SDS011;3083;51.508;7.966;2022-10-12T03:26:11;20.90;;;8.93;;
6105;SDS011;3083;51.508;7.966;2022-10-12T03:28:38;18.60;;;7.77;;
6105;SDS011;3083;51.508;7.966;2022-10-12T03:31:04;14.50;;;7.80;;
6105;SDS011;3083;51.508;7.966;2022-10-12T03:33:32;19.90;;;8.40;;
6105;SDS011;3083;51.508;7.966;2022-10-12T03:35:58;17.40;;;7.90;;
6105;SDS011;3083;51.508;7.966;2022-10-12T03:38:27;17.80;;;8.70;;
6105;SDS011;3083;51.508;7.966;2022-10-12T03:40:54;21.73;;;8.87;;
6105;SDS011;3083;51.508;7.966;2022-10-12T03:43:21;18.23;;;8.70;;
6105;SDS011;3083;51.508;7.966;2022-10-12T03:45:48;19.03;;;8.37;;
6105;SDS011;3083;51.508;7.966;2022-10-12T03:48:16;21.10;;;8.60;;
6105;SDS011;3083;51.508;7.966;2022-10-12T03:50:47;18.67;;;8.20;;
6105;SDS011;3083;51.508;7.966;2022-10-12T03:53:14;17.10;;;8.60;;
6105;SDS011;3083;51.508;7.966;2022-10-12T03:55:43;21.10;;;9.43;;
6105;SDS011;3083;51.508;7.966;2022-10-12T03:58:11;21.40;;;9.17;;
6105;SDS011;3083;51.508;7.966;2022-10-12T04:00:38;20.13;;;9.40;;
6105;SDS011;3083;51.508;7.966;2022-10-12T04:03:05;19.47;;;9.00;;
6105;SDS011;3083;51.508;7.966;2022-10-12T04:05:32;19.27;;;9.37;;
6105;SDS011;3083;51.508;7.966;2022-10-12T04:07:58;20.03;;;9.70;;
6105;SDS011;3083;51.508;7.966;2022-10-12T04:10:25;20.43;;;9.50;;
6105;SDS011;3083;51.508;7.966;2022-10-12T04:12:54;19.10;;;7.97;;
6105;SDS011;3083;51.508;7.966;2022-10-12T04:15:21;20.97;;;8.97;;
6105;SDS011;3083;51.508;7.966;2022-10-12T04:17:48;27.30;;;9.20;;
6105;SDS011;3083;51.508;7.966;2022-10-12T04:20:15;18.93;;;7.77;;
6105;SDS011;3083;51.508;7.966;2022-10-12T04:22:42;20.33;;;9.13;;
6105;SDS011;3083;51.508;7.966;2022-10-12T04:25:10;23.63;;;9.67;;
6105;SDS011;3083;51.508;7.966;2022-10-12T04:27:37;14.47;;;7.47;;
6105;SDS011;3083;51.508;7.966;2022-10-12T04:30:06;20.03;;;9.00;;
6105;SDS011;3083;51.508;7.966;2022-10-12T04:32:33;25.60;;;10.47;;
6105;SDS011;3083;51.508;7.966;2022-10-12T04:35:00;18.23;;;8.40;;
6105;SDS011;3083;51.508;7.966;2022-10-12T04:37:27;17.27;;;8.40;;
6105;SDS011;3083;51.508;7.966;2022-10-12T04:39:54;18.27;;;7.90;;
6105;SDS011;3083;51.508;7.966;2022-10-12T04:42:21;19.53;;;8.47;;
6105;SDS011;3083;51.508;7.966;2022-10-12T04:44:48;18.30;;;9.03;;
6105;SDS011;3083;51.508;7.966;2022-10-12T04:47:16;19.93;;;8.80;;
6105;SDS011;3083;51.508;7.966;2022-10-12T04:49:43;21.47;;;8.60;;
6105;SDS011;3083;51.508;7.966;2022-10-12T04:52:10;16.87;;;8.00;;
6105;SDS011;3083;51.508;7.966;2022-10-12T04:54:37;16.47;;;7.87;;
6105;SDS011;3083;51.508;7.966;2022-10-12T04:57:04;19.97;;;8.50;;
6105;SDS011;3083;51.508;7.966;2022-10-12T04:59:31;22.30;;;8.50;;
6105;SDS011;3083;51.508;7.966;2022-10-12T05:01:58;19.53;;;9.13;;
6105;SDS011;3083;51.508;7.966;2022-10-12T05:04:26;24.67;;;9.50;;
6105;SDS011;3083;51.508;7.966;2022-10-12T05:06:53;22.20;;;8.83;;
6105;SDS011;3083;51.508;7.966;2022-10-12T05:09:20;25.20;;;7.83;;
6105;SDS011;3083;51.508;7.966;2022-10-12T05:11:46;20.80;;;8.10;;
6105;SDS011;3083;51.508;7.966;2022-10-12T05:14:13;21.23;;;8.90;;
6105;SDS011;3083;51.508;7.966;2022-10-12T05:16:40;16.77;;;8.00;;
6105;SDS011;3083;51.508;7.966;2022-10-12T05:19:07;18.73;;;8.97;;
6105;SDS011;3083;51.508;7.966;2022-10-12T05:21:35;23.90;;;9.20;;
6105;SDS011;3083;51.508;7.966;2022-10-12T05:24:04;29.60;;;9.30;;
6105;SDS011;3083;51.508;7.966;2022-10-12T05:26:31;16.50;;;8.30;;
6105;SDS011;3083;51.508;7.966;2022-10-12T05:28:58;21.10;;;9.03;;
6105;SDS011;3083;51.508;7.966;2022-10-12T05:31:25;21.60;;;8.60;;
6105;SDS011;3083;51.508;7.966;2022-10-12T05:33:52;25.80;;;9.10;;
6105;SDS011;3083;51.508;7.966;2022-10-12T05:36:19;27.80;;;9.03;;
6105;SDS011;3083;51.508;7.966;2022-10-12T05:38:48;27.70;;;9.67;;
6105;SDS011;3083;51.508;7.966;2022-10-12T05:41:15;22.77;;;9.20;;
6105;SDS011;3083;51.508;7.966;2022-10-12T05:43:41;19.50;;;8.73;;
6105;SDS011;3083;51.508;7.966;2022-10-12T05:46:08;21.77;;;8.80;;
6105;SDS011;3083;51.508;7.966;2022-10-12T05:48:35;25.27;;;9.50;;
6105;SDS011;3083;51.508;7.966;2022-10-12T05:51:02;23.13;;;9.73;;
6105;SDS011;3083;51.508;7.966;2022-10-12T05:53:29;17.03;;;8.53;;
6105;SDS011;3083;51.508;7.966;2022-10-12T05:55:58;18.10;;;8.43;;
6105;SDS011;3083;51.508;7.966;2022-10-12T05:58:26;19.40;;;8.40;;
6105;SDS011;3083;51.508;7.966;2022-10-12T06:00:54;18.93;;;7.87;;
6105;SDS011;3083;51.508;7.966;2022-10-12T06:03:29;22.33;;;8.27;;
6105;SDS011;3083;51.508;7.966;2022-10-12T06:05:56;20.47;;;8.30;;
6105;SDS011;3083;51.508;7.966;2022-10-12T06:08:23;20.30;;;8.90;;
6105;SDS011;3083;51.508;7.966;2022-10-12T06:10:50;29.33;;;8.23;;
6105;SDS011;3083;51.508;7.966;2022-10-12T06:13:19;21.73;;;8.20;;
6105;SDS011;3083;51.508;7.966;2022-10-12T06:15:46;14.20;;;7.70;;
6105;SDS011;3083;51.508;7.966;2022-10-12T06:18:14;25.40;;;8.57;;
6105;SDS011;3083;51.508;7.966;2022-10-12T06:20:44;18.30;;;9.30;;
6105;SDS011;3083;51.508;7.966;2022-10-12T06:23:12;22.50;;;9.87;;
6105;SDS011;3083;51.508;7.966;2022-10-12T06:25:39;21.60;;;8.93;;
6105;SDS011;3083;51.508;7.966;2022-10-12T06:28:06;23.53;;;10.63;;
6105;SDS011;3083;51.508;7.966;2022-10-12T06:30:34;24.63;;;10.00;;
6105;SDS011;3083;51.508;7.966;2022-10-12T06:33:01;19.10;;;9.47;;
6105;SDS011;3083;51.508;7.966;2022-10-12T06:35:28;24.93;;;10.37;;
6105;SDS011;3083;51.508;7.966;2022-10-12T06:37:55;24.10;;;9.90;;
6105;SDS011;3083;51.508;7.966;2022-10-12T06:40:22;23.47;;;10.97;;
6105;SDS011;3083;51.508;7.966;2022-10-12T06:42:51;30.20;;;12.67;;
6105;SDS011;3083;51.508;7.966;2022-10-12T06:45:18;30.83;;;15.13;;
6105;SDS011;3083;51.508;7.966;2022-10-12T06:47:46;43.30;;;16.60;;
6105;SDS011;3083;51.508;7.966;2022-10-12T06:50:13;35.50;;;14.60;;
6105;SDS011;3083;51.508;7.966;2022-10-12T06:52:40;33.47;;;13.90;;
6105;SDS011;3083;51.508;7.966;2022-10-12T06:55:08;30.77;;;13.60;;
6105;SDS011;3083;51.508;7.966;2022-10-12T06:57:36;25.97;;;12.40;;
6105;SDS011;3083;51.508;7.966;2022-10-12T07:00:04;24.17;;;9.70;;
6105;SDS011;3083;51.508;7.966;2022-10-12T07:02:32;22.80;;;10.57;;
6105;SDS011;3083;51.508;7.966;2022-10-12T07:05:00;21.60;;;9.93;;
6105;SDS011;3083;51.508;7.966;2022-10-12T07:07:28;20.90;;;9.73;;
6105;SDS011;3083;51.508;7.966;2022-10-12T07:09:55;17.80;;;8.63;;
6105;SDS011;3083;51.508;7.966;2022-10-12T07:12:22;18.87;;;8.87;;
6105;SDS011;3083;51.508;7.966;2022-10-12T07:14:49;14.13;;;8.00;;
6105;SDS011;3083;51.508;7.966;2022-10-12T07:17:18;16.53;;;8.07;;
6105;SDS011;3083;51.508;7.966;2022-10-12T07:19:45;14.10;;;7.60;;
6105;SDS011;3083;51.508;7.966;2022-10-12T07:22:13;16.17;;;8.50;;
6105;SDS011;3083;51.508;7.966;2022-10-12T07:24:40;12.53;;;7.97;;
6105;SDS011;3083;51.508;7.966;2022-10-12T07:27:08;11.30;;;6.40;;
6105;SDS011;3083;51.508;7.966;2022-10-12T07:29:36;8.53;;;5.60;;
6105;SDS011;3083;51.508;7.966;2022-10-12T07:32:05;15.87;;;6.90;;
6105;SDS011;3083;51.508;7.966;2022-10-12T07:34:33;11.83;;;6.40;;
6105;SDS011;3083;51.508;7.966;2022-10-12T07:37:00;13.33;;;6.87;;
6105;SDS011;3083;51.508;7.966;2022-10-12T07:39:28;11.43;;;7.53;;
6105;SDS011;3083;51.508;7.966;2022-10-12T07:41:55;12.93;;;7.03;;
6105;SDS011;3083;51.508;7.966;2022-10-12T07:44:22;9.40;;;6.50;;
6105;SDS011;3083;51.508;7.966;2022-10-12T07:46:50;10.90;;;5.50;;
6105;SDS011;3083;51.508;7.966;2022-10-12T07:49:17;11.60;;;6.07;;
6105;SDS011;3083;51.508;7.966;2022-10-12T07:51:47;11.63;;;5.73;;
6105;SDS011;3083;51.508;7.966;2022-10-12T07:54:14;10.13;;;5.30;;
6105;SDS011;3083;51.508;7.966;2022-10-12T07:56:42;11.17;;;4.77;;
6105;SDS011;3083;51.508;7.966;2022-10-12T07:59:10;10.87;;;6.20;;
6105;SDS011;3083;51.508;7.966;2022-10-12T08:01:37;9.60;;;5.23;;
6105;SDS011;3083;51.508;7.966;2022-10-12T08:04:04;10.70;;;5.40;;
6105;SDS011;3083;51.508;7.966;2022-10-12T08:06:32;10.33;;;4.40;;
6105;SDS011;3083;51.508;7.966;2022-10-12T08:09:00;12.53;;;5.23;;
6105;SDS011;3083;51.508;7.966;2022-10-12T08:11:27;8.93;;;4.37;;
6105;SDS011;3083;51.508;7.966;2022-10-12T08:13:56;8.90;;;4.50;;
6105;SDS011;3083;51.508;7.966;2022-10-12T08:16:23;8.90;;;4.13;;
6105;SDS011;3083;51.508;7.966;2022-10-12T08:18:50;9.70;;;4.93;;
6105;SDS011;3083;51.508;7.966;2022-10-12T08:21:17;9.43;;;3.93;;
6105;SDS011;3083;51.508;7.966;2022-10-12T08:23:44;8.37;;;4.50;;
6105;SDS011;3083;51.508;7.966;2022-10-12T08:26:12;8.90;;;3.60;;
6105;SDS011;3083;51.508;7.966;2022-10-12T08:28:39;6.70;;;4.07;;
6105;SDS011;3083;51.508;7.966;2022-10-12T08:31:09;7.10;;;3.70;;
6105;SDS011;3083;51.508;7.966;2022-10-12T08:33:38;9.30;;;3.40;;
6105;SDS011;3083;51.508;7.966;2022-10-12T08:36:05;5.93;;;3.00;;
6105;SDS011;3083;51.508;7.966;2022-10-12T08:38:33;11.10;;;3.33;;
6105;SDS011;3083;51.508;7.966;2022-10-12T08:41:04;6.67;;;3.03;;
6105;SDS011;3083;51.508;7.966;2022-10-12T08:43:45;7.53;;;3.37;;
6105;SDS011;3083;51.508;7.966;2022-10-12T08:46:23;7.87;;;3.20;;
6105;SDS011;3083;51.508;7.966;2022-10-12T08:48:54;8.13;;;3.67;;
6105;SDS011;3083;51.508;7.966;2022-10-12T08:51:25;10.97;;;3.60;;
6105;SDS011;3083;51.508;7.966;2022-10-12T08:53:57;7.37;;;3.63;;
6105;SDS011;3083;51.508;7.966;2022-10-12T08:56:29;7.10;;;3.50;;
6105;SDS011;3083;51.508;7.966;2022-10-12T08:58:56;5.00;;;3.00;;
6105;SDS011;3083;51.508;7.966;2022-10-12T09:01:26;8.10;;;3.40;;
6105;SDS011;3083;51.508;7.966;2022-10-12T09:04:04;9.37;;;4.23;;
6105;SDS011;3083;51.508;7.966;2022-10-12T09:06:38;9.07;;;4.20;;
6105;SDS011;3083;51.508;7.966;2022-10-12T09:09:13;8.60;;;3.20;;
6105;SDS011;3083;51.508;7.966;2022-10-12T09:12:04;7.67;;;3.50;;
6105;SDS011;3083;51.508;7.966;2022-10-12T09:14:42;9.37;;;3.50;;
6105;SDS011;3083;51.508;7.966;2022-10-12T09:17:20;9.97;;;3.20;;
6105;SDS011;3083;51.508;7.966;2022-10-12T09:19:52;9.07;;;3.07;;
6105;SDS011;3083;51.508;7.966;2022-10-12T09:22:28;8.63;;;3.33;;
6105;SDS011;3083;51.508;7.966;2022-10-12T09:24:56;7.80;;;3.00;;
6105;SDS011;3083;51.508;7.966;2022-10-12T09:27:24;12.17;;;3.30;;
6105;SDS011;3083;51.508;7.966;2022-10-12T09:29:56;9.77;;;3.67;;
6105;SDS011;3083;51.508;7.966;2022-10-12T09:32:36;7.50;;;2.90;;
6105;SDS011;3083;51.508;7.966;2022-10-12T09:35:13;7.37;;;3.60;;
6105;SDS011;3083;51.508;7.966;2022-10-12T09:37:40;11.03;;;3.57;;
6105;SDS011;3083;51.508;7.966;2022-10-12T09:40:12;14.77;;;3.60;;
6105;SDS011;3083;51.508;7.966;2022-10-12T09:42:45;15.33;;;3.97;;
6105;SDS011;3083;51.508;7.966;2022-10-12T09:45:13;7.80;;;3.50;;
6105;SDS011;3083;51.508;7.966;2022-10-12T09:48:07;11.80;;;4.00;;
6105;SDS011;3083;51.508;7.966;2022-10-12T09:50:38;7.37;;;3.33;;
6105;SDS011;3083;51.508;7.966;2022-10-12T09:53:14;14.03;;;3.53;;
6105;SDS011;3083;51.508;7.966;2022-10-12T09:55:52;6.97;;;3.50;;
6105;SDS011;3083;51.508;7.966;2022-10-12T09:58:21;6.80;;;2.87;;
6105;SDS011;3083;51.508;7.966;2022-10-12T10:03:49;10.83;;;2.70;;
6105;SDS011;3083;51.508;7.966;2022-10-12T10:06:33;7.20;;;2.57;;
6105;SDS011;3083;51.508;7.966;2022-10-12T10:09:00;8.33;;;2.57;;
6105;SDS011;3083;51.508;7.966;2022-10-12T10:11:28;8.00;;;2.57;;
6105;SDS011;3083;51.508;7.966;2022-10-12T10:13:56;7.90;;;2.63;;
6105;SDS011;3083;51.508;7.966;2022-10-12T10:16:25;5.80;;;2.83;;
6105;SDS011;3083;51.508;7.966;2022-10-12T10:18:55;6.00;;;2.70;;
6105;SDS011;3083;51.508;7.966;2022-10-12T10:21:27;5.47;;;2.60;;
6105;SDS011;3083;51.508;7.966;2022-10-12T10:23:57;8.43;;;3.07;;
6105;SDS011;3083;51.508;7.966;2022-10-12T10:26:26;7.43;;;2.20;;
6105;SDS011;3083;51.508;7.966;2022-10-12T10:28:55;7.07;;;2.80;;
6105;SDS011;3083;51.508;7.966;2022-10-12T10:31:39;8.83;;;2.67;;
6105;SDS011;3083;51.508;7.966;2022-10-12T10:34:12;6.30;;;2.50;;
6105;SDS011;3083;51.508;7.966;2022-10-12T10:36:46;11.80;;;3.47;;
6105;SDS011;3083;51.508;7.966;2022-10-12T10:39:16;5.97;;;2.77;;
6105;SDS011;3083;51.508;7.966;2022-10-12T10:41:46;7.77;;;2.33;;
6105;SDS011;3083;51.508;7.966;2022-10-12T10:44:19;3.70;;;2.13;;
6105;SDS011;3083;51.508;7.966;2022-10-12T10:46:53;7.17;;;2.37;;
6105;SDS011;3083;51.508;7.966;2022-10-12T10:49:27;10.50;;;2.93;;
6105;SDS011;3083;51.508;7.966;2022-10-12T10:51:59;5.20;;;2.60;;
6105;SDS011;3083;51.508;7.966;2022-10-12T10:54:31;7.70;;;3.50;;
6105;SDS011;3083;51.508;7.966;2022-10-12T10:57:00;9.10;;;2.97;;
6105;SDS011;3083;51.508;7.966;2022-10-12T10:59:34;6.07;;;2.50;;
6105;SDS011;3083;51.508;7.966;2022-10-12T11:02:10;6.47;;;2.60;;
6105;SDS011;3083;51.508;7.966;2022-10-12T11:04:46;6.23;;;2.57;;
6105;SDS011;3083;51.508;7.966;2022-10-12T11:07:19;5.20;;;2.37;;
6105;SDS011;3083;51.508;7.966;2022-10-12T11:09:50;6.20;;;2.40;;
6105;SDS011;3083;51.508;7.966;2022-10-12T11:12:22;7.60;;;2.83;;
6105;SDS011;3083;51.508;7.966;2022-10-12T11:14:54;4.80;;;2.40;;
6105;SDS011;3083;51.508;7.966;2022-10-12T11:17:27;6.90;;;2.47;;
6105;SDS011;3083;51.508;7.966;2022-10-12T11:20:04;5.13;;;2.30;;
6105;SDS011;3083;51.508;7.966;2022-10-12T11:22:43;8.83;;;2.30;;
6105;SDS011;3083;51.508;7.966;2022-10-12T11:25:17;6.07;;;2.60;;
6105;SDS011;3083;51.508;7.966;2022-10-12T11:27:48;5.20;;;2.50;;
6105;SDS011;3083;51.508;7.966;2022-10-12T11:30:17;6.17;;;2.40;;
6105;SDS011;3083;51.508;7.966;2022-10-12T11:32:45;5.40;;;2.50;;
6105;SDS011;3083;51.508;7.966;2022-10-12T11:35:24;6.47;;;2.70;;
6105;SDS011;3083;51.508;7.966;2022-10-12T11:37:54;8.30;;;2.77;;
6105;SDS011;3083;51.508;7.966;2022-10-12T11:40:26;8.00;;;2.50;;
6105;SDS011;3083;51.508;7.966;2022-10-12T11:42:56;7.10;;;2.97;;
6105;SDS011;3083;51.508;7.966;2022-10-12T11:45:30;4.73;;;2.17;;
6105;SDS011;3083;51.508;7.966;2022-10-12T11:48:08;8.90;;;3.00;;
6105;SDS011;3083;51.508;7.966;2022-10-12T11:50:40;6.03;;;2.37;;
6105;SDS011;3083;51.508;7.966;2022-10-12T11:53:13;6.33;;;2.30;;
6105;SDS011;3083;51.508;7.966;2022-10-12T11:55:49;6.70;;;2.90;;
6105;SDS011;3083;51.508;7.966;2022-10-12T11:58:25;8.23;;;2.60;;
6105;SDS011;3083;51.508;7.966;2022-10-12T12:00:56;12.47;;;3.50;;
6105;SDS011;3083;51.508;7.966;2022-10-12T12:03:59;4.70;;;2.27;;
6105;SDS011;3083;51.508;7.966;2022-10-12T12:06:51;8.63;;;2.60;;
6105;SDS011;3083;51.508;7.966;2022-10-12T12:09:35;5.30;;;2.70;;
6105;SDS011;3083;51.508;7.966;2022-10-12T12:12:08;5.40;;;2.53;;
6105;SDS011;3083;51.508;7.966;2022-10-12T12:14:57;7.27;;;3.27;;
6105;SDS011;3083;51.508;7.966;2022-10-12T12:17:27;7.43;;;2.40;;
6105;SDS011;3083;51.508;7.966;2022-10-12T12:19:55;5.83;;;2.40;;
6105;SDS011;3083;51.508;7.966;2022-10-12T12:22:34;7.60;;;2.60;;
6105;SDS011;3083;51.508;7.966;2022-10-12T12:25:18;7.77;;;3.33;;
6105;SDS011;3083;51.508;7.966;2022-10-12T12:27:52;7.80;;;3.57;;
6105;SDS011;3083;51.508;7.966;2022-10-12T12:30:24;7.10;;;2.70;;
6105;SDS011;3083;51.508;7.966;2022-10-12T12:32:57;7.80;;;3.07;;
6105;SDS011;3083;51.508;7.966;2022-10-12T12:35:27;9.33;;;2.67;;
6105;SDS011;3083;51.508;7.966;2022-10-12T12:38:06;8.30;;;2.90;;
6105;SDS011;3083;51.508;7.966;2022-10-12T12:40:52;9.40;;;3.40;;
6105;SDS011;3083;51.508;7.966;2022-10-12T12:47:13;7.60;;;2.90;;
6105;SDS011;3083;51.508;7.966;2022-10-12T12:49:37;9.30;;;3.10;;
6105;SDS011;3083;51.508;7.966;2022-10-12T12:52:09;7.07;;;3.03;;
6105;SDS011;3083;51.508;7.966;2022-10-12T12:57:58;9.50;;;3.43;;
6105;SDS011;3083;51.508;7.966;2022-10-12T13:00:49;6.27;;;2.83;;
6105;SDS011;3083;51.508;7.966;2022-10-12T13:03:29;6.27;;;2.83;;
6105;SDS011;3083;51.508;7.966;2022-10-12T13:06:35;5.20;;;3.00;;
6105;SDS011;3083;51.508;7.966;2022-10-12T13:12:31;7.17;;;2.90;;
6105;SDS011;3083;51.508;7.966;2022-10-12T13:15:17;7.87;;;2.70;;
6105;SDS011;3083;51.508;7.966;2022-10-12T13:18:04;8.97;;;2.93;;
6105;SDS011;3083;51.508;7.966;2022-10-12T13:20:51;7.27;;;2.70;;
6105;SDS011;3083;51.508;7.966;2022-10-12T13:23:19;8.00;;;3.07;;
6105;SDS011;3083;51.508;7.966;2022-10-12T13:25:49;6.63;;;3.10;;
6105;SDS011;3083;51.508;7.966;2022-10-12T13:28:23;7.70;;;2.70;;
6105;SDS011;3083;51.508;7.966;2022-10-12T13:30:54;7.93;;;2.87;;
6105;SDS011;3083;51.508;7.966;2022-10-12T13:33:26;11.23;;;3.13;;
6105;SDS011;3083;51.508;7.966;2022-10-12T13:35:57;8.80;;;3.00;;
6105;SDS011;3083;51.508;7.966;2022-10-12T13:38:28;11.20;;;3.00;;
6105;SDS011;3083;51.508;7.966;2022-10-12T13:40:56;7.90;;;2.93;;
6105;SDS011;3083;51.508;7.966;2022-10-12T13:43:30;5.07;;;2.90;;
6105;SDS011;3083;51.508;7.966;2022-10-12T13:46:00;6.87;;;3.30;;
6105;SDS011;3083;51.508;7.966;2022-10-12T13:48:28;8.37;;;3.03;;
6105;SDS011;3083;51.508;7.966;2022-10-12T13:50:56;12.47;;;3.97;;
6105;SDS011;3083;51.508;7.966;2022-10-12T13:53:24;7.37;;;3.40;;
6105;SDS011;3083;51.508;7.966;2022-10-12T13:55:54;9.10;;;3.30;;
6105;SDS011;3083;51.508;7.966;2022-10-12T13:58:26;11.50;;;3.67;;
6105;SDS011;3083;51.508;7.966;2022-10-12T14:00:56;10.70;;;3.70;;
6105;SDS011;3083;51.508;7.966;2022-10-12T14:03:24;9.50;;;3.40;;
6105;SDS011;3083;51.508;7.966;2022-10-12T14:05:52;8.13;;;3.83;;
6105;SDS011;3083;51.508;7.966;2022-10-12T14:08:22;9.13;;;4.07;;
6105;SDS011;3083;51.508;7.966;2022-10-12T14:10:51;6.30;;;3.50;;
6105;SDS011;3083;51.508;7.966;2022-10-12T14:13:23;9.87;;;3.77;;
6105;SDS011;3083;51.508;7.966;2022-10-12T14:15:53;9.40;;;3.60;;
6105;SDS011;3083;51.508;7.966;2022-10-12T14:18:36;9.20;;;3.93;;
6105;SDS011;3083;51.508;7.966;2022-10-12T14:21:11;9.03;;;3.40;;
6105;SDS011;3083;51.508;7.966;2022-10-12T14:23:47;11.73;;;4.47;;
6105;SDS011;3083;51.508;7.966;2022-10-12T14:26:22;8.87;;;3.80;;
6105;SDS011;3083;51.508;7.966;2022-10-12T14:28:51;9.23;;;3.73;;
6105;SDS011;3083;51.508;7.966;2022-10-12T14:37:19;8.03;;;4.33;;
6105;SDS011;3083;51.508;7.966;2022-10-12T14:39:53;9.23;;;3.90;;
6105;SDS011;3083;51.508;7.966;2022-10-12T14:42:31;10.20;;;4.50;;
6105;SDS011;3083;51.508;7.966;2022-10-12T14:45:00;7.43;;;3.80;;
6105;SDS011;3083;51.508;7.966;2022-10-12T14:47:30;7.90;;;3.80;;
6105;SDS011;3083;51.508;7.966;2022-10-12T14:49:59;6.50;;;3.90;;
6105;SDS011;3083;51.508;7.966;2022-10-12T14:52:32;9.83;;;4.20;;
6105;SDS011;3083;51.508;7.966;2022-10-12T14:55:12;21.57;;;7.87;;
6105;SDS011;3083;51.508;7.966;2022-10-12T14:57:42;14.83;;;4.33;;
6105;SDS011;3083;51.508;7.966;2022-10-12T15:00:11;10.90;;;4.20;;
6105;SDS011;3083;51.508;7.966;2022-10-12T15:02:41;9.00;;;3.80;;
6105;SDS011;3083;51.508;7.966;2022-10-12T15:05:09;9.50;;;4.47;;
6105;SDS011;3083;51.508;7.966;2022-10-12T15:07:37;8.03;;;4.40;;
6105;SDS011;3083;51.508;7.966;2022-10-12T15:10:05;11.60;;;5.00;;
6105;SDS011;3083;51.508;7.966;2022-10-12T15:12:33;14.53;;;5.20;;
6105;SDS011;3083;51.508;7.966;2022-10-12T15:15:00;27.60;;;7.50;;
6105;SDS011;3083;51.508;7.966;2022-10-12T15:17:45;9.27;;;4.30;;
6105;SDS011;3083;51.508;7.966;2022-10-12T15:20:12;8.10;;;3.57;;
6105;SDS011;3083;51.508;7.966;2022-10-12T15:22:39;9.53;;;4.30;;
6105;SDS011;3083;51.508;7.966;2022-10-12T15:25:12;10.40;;;4.50;;
6105;SDS011;3083;51.508;7.966;2022-10-12T15:27:43;9.10;;;4.50;;
6105;SDS011;3083;51.508;7.966;2022-10-12T15:30:11;7.07;;;4.00;;
6105;SDS011;3083;51.508;7.966;2022-10-12T15:32:38;10.33;;;5.17;;
6105;SDS011;3083;51.508;7.966;2022-10-12T15:35:11;12.80;;;5.63;;
6105;SDS011;3083;51.508;7.966;2022-10-12T15:37:42;17.07;;;5.93;;
6105;SDS011;3083;51.508;7.966;2022-10-12T15:40:11;11.60;;;5.80;;
6105;SDS011;3083;51.508;7.966;2022-10-12T15:42:38;13.10;;;6.43;;
6105;SDS011;3083;51.508;7.966;2022-10-12T15:45:17;11.00;;;5.70;;